SKW1822 KTVC-KDTW
Flight info
| Callsign | SKW1822 |
|---|---|
| Flight time | 0h 35m |
| Altitude | 17000 |
| Route | LEFSA LAYKS2 |
| Aircraft | CRJ7/M-VGDW/C |
Departure
| Time | 2026-05-05 17:13 |
|---|---|
| Airport | Cherry Capital Airport (KTVC) |
Arrival
| Time | 2026-05-05 17:49 |
|---|---|
| Airport | Detroit Metropolitan Wayne County Airport (KDTW) |
| Time | Latitude | Longitude | Altitude | Speed | Heading |
|---|---|---|---|---|---|
| 2026-05-05 17:06 | 44.73779 | -85.57889 | 625 ft | 0 kts | 259° |
| 2026-05-05 17:07 | 44.73782 | -85.57867 | 631 ft | 3 kts | 259° |
| 2026-05-05 17:07 | 44.73785 | -85.57850 | 628 ft | 3 kts | 259° |
| 2026-05-05 17:08 | 44.73782 | -85.57818 | 625 ft | 2 kts | 317° |
| 2026-05-05 17:08 | 44.73769 | -85.57812 | 630 ft | 0 kts | 13° |
| 2026-05-05 17:09 | 44.73794 | -85.57811 | 625 ft | 10 kts | 1° |
| 2026-05-05 17:09 | 44.73827 | -85.57809 | 625 ft | 10 kts | 4° |
| 2026-05-05 17:09 | 44.73906 | -85.57800 | 627 ft | 5 kts | 6° |
| 2026-05-05 17:10 | 44.73937 | -85.57783 | 627 ft | 5 kts | 47° |
| 2026-05-05 17:10 | 44.73946 | -85.57734 | 624 ft | 7 kts | 89° |
| 2026-05-05 17:10 | 44.73944 | -85.57636 | 624 ft | 14 kts | 92° |
| 2026-05-05 17:10 | 44.73936 | -85.57471 | 631 ft | 19 kts | 95° |
| 2026-05-05 17:11 | 44.73923 | -85.57245 | 628 ft | 27 kts | 92° |
| 2026-05-05 17:11 | 44.73872 | -85.56983 | 623 ft | 24 kts | 121° |
| 2026-05-05 17:11 | 44.73833 | -85.56775 | 622 ft | 22 kts | 92° |
| 2026-05-05 17:11 | 44.73824 | -85.56569 | 631 ft | 24 kts | 95° |
| 2026-05-05 17:12 | 44.73866 | -85.56416 | 629 ft | 15 kts | 8° |
| 2026-05-05 17:12 | 44.73978 | -85.56417 | 619 ft | 17 kts | 329° |
| 2026-05-05 17:12 | 44.74001 | -85.56531 | 620 ft | 0 kts | 274° |
| 2026-05-05 17:12 | 44.74009 | -85.56727 | 632 ft | 52 kts | 274° |
| 2026-05-05 17:13 | 44.74048 | -85.57558 | 631 ft | 112 kts | 274° |
| 2026-05-05 17:13 | 44.74093 | -85.58747 | 976 ft | 127 kts | 274° |
| 2026-05-05 17:13 | 44.74117 | -85.59965 | 1706 ft | 117 kts | 270° |
| 2026-05-05 17:13 | 44.74165 | -85.61094 | 2390 ft | 115 kts | 274° |
| 2026-05-05 17:14 | 44.73915 | -85.62070 | 2870 ft | 119 kts | 217° |
| 2026-05-05 17:14 | 44.72992 | -85.61964 | 3127 ft | 166 kts | 149° |
| 2026-05-05 17:14 | 44.72221 | -85.60687 | 3654 ft | 180 kts | 139° |
| 2026-05-05 17:14 | 44.71234 | -85.59392 | 3929 ft | 212 kts | 146° |
| 2026-05-05 17:15 | 44.70024 | -85.58008 | 4462 ft | 234 kts | 147° |
| 2026-05-05 17:15 | 44.68753 | -85.56469 | 5045 ft | 248 kts | 142° |
| 2026-05-05 17:15 | 44.67478 | -85.54743 | 5646 ft | 261 kts | 140° |
| 2026-05-05 17:15 | 44.66176 | -85.52883 | 6226 ft | 273 kts | 139° |
| 2026-05-05 17:16 | 44.64849 | -85.50961 | 6906 ft | 276 kts | 139° |
| 2026-05-05 17:16 | 44.63474 | -85.49041 | 7609 ft | 281 kts | 141° |
| 2026-05-05 17:16 | 44.62065 | -85.47117 | 8313 ft | 285 kts | 141° |
| 2026-05-05 17:16 | 44.60718 | -85.45273 | 8986 ft | 288 kts | 141° |
| 2026-05-05 17:17 | 44.59274 | -85.43299 | 9711 ft | 292 kts | 141° |
| 2026-05-05 17:17 | 44.57817 | -85.41285 | 10365 ft | 295 kts | 143° |
| 2026-05-05 17:17 | 44.56329 | -85.39280 | 11035 ft | 298 kts | 143° |
| 2026-05-05 17:17 | 44.54828 | -85.37245 | 11587 ft | 305 kts | 143° |
| 2026-05-05 17:18 | 44.53277 | -85.35132 | 12040 ft | 316 kts | 143° |
| 2026-05-05 17:18 | 44.51677 | -85.32943 | 12487 ft | 326 kts | 143° |
| 2026-05-05 17:18 | 44.50021 | -85.30690 | 12928 ft | 336 kts | 144° |
| 2026-05-05 17:18 | 44.48320 | -85.28380 | 13408 ft | 346 kts | 144° |
| 2026-05-05 17:19 | 44.46575 | -85.26003 | 13844 ft | 354 kts | 144° |
| 2026-05-05 17:19 | 44.44785 | -85.23570 | 14271 ft | 363 kts | 144° |
| 2026-05-05 17:19 | 44.42956 | -85.21085 | 14707 ft | 370 kts | 145° |
| 2026-05-05 17:19 | 44.41086 | -85.18553 | 15145 ft | 377 kts | 146° |
| 2026-05-05 17:20 | 44.39174 | -85.15987 | 15578 ft | 385 kts | 146° |
| 2026-05-05 17:20 | 44.37232 | -85.13350 | 16020 ft | 392 kts | 146° |
| 2026-05-05 17:20 | 44.35252 | -85.10674 | 16438 ft | 400 kts | 147° |
| 2026-05-05 17:20 | 44.33247 | -85.07975 | 16648 ft | 413 kts | 147° |
| 2026-05-05 17:21 | 44.31134 | -85.05134 | 16703 ft | 429 kts | 146° |
| 2026-05-05 17:21 | 44.28940 | -85.02200 | 16756 ft | 444 kts | 147° |
| 2026-05-05 17:21 | 44.26666 | -84.99176 | 16797 ft | 459 kts | 146° |
| 2026-05-05 17:22 | 44.22669 | -84.93828 | 16810 ft | 484 kts | 145° |
| 2026-05-05 17:22 | 44.20214 | -84.90525 | 16819 ft | 497 kts | 145° |
| 2026-05-05 17:22 | 44.17698 | -84.87145 | 16818 ft | 509 kts | 145° |
| 2026-05-05 17:22 | 44.15116 | -84.83701 | 16814 ft | 519 kts | 145° |
| 2026-05-05 17:23 | 44.12525 | -84.80229 | 16799 ft | 529 kts | 144° |
| 2026-05-05 17:23 | 44.09864 | -84.76635 | 16769 ft | 537 kts | 144° |
| 2026-05-05 17:23 | 44.07202 | -84.72946 | 16785 ft | 544 kts | 142° |
| 2026-05-05 17:23 | 44.04569 | -84.69127 | 16784 ft | 550 kts | 141° |
| 2026-05-05 17:24 | 44.01917 | -84.65278 | 16769 ft | 552 kts | 142° |
| 2026-05-05 17:24 | 43.99230 | -84.61464 | 16779 ft | 552 kts | 143° |
| 2026-05-05 17:24 | 43.96520 | -84.57673 | 16780 ft | 554 kts | 142° |
| 2026-05-05 17:24 | 43.93815 | -84.53862 | 16781 ft | 555 kts | 143° |
| 2026-05-05 17:25 | 43.91091 | -84.50054 | 16779 ft | 556 kts | 142° |
| 2026-05-05 17:25 | 43.89295 | -84.47523 | 16728 ft | 556 kts | 142° |
| 2026-05-05 17:25 | 43.85631 | -84.42460 | 16759 ft | 556 kts | 143° |
| 2026-05-05 17:25 | 43.82898 | -84.38680 | 16770 ft | 556 kts | 142° |
| 2026-05-05 17:26 | 43.80173 | -84.34866 | 16781 ft | 557 kts | 142° |
| 2026-05-05 17:26 | 43.77360 | -84.31224 | 16771 ft | 546 kts | 150° |
| 2026-05-05 17:26 | 43.74192 | -84.28451 | 16763 ft | 535 kts | 159° |
| 2026-05-05 17:26 | 43.70945 | -84.26050 | 16777 ft | 533 kts | 161° |
| 2026-05-05 17:27 | 43.67920 | -84.23826 | 16745 ft | 534 kts | 160° |
| 2026-05-05 17:27 | 43.64667 | -84.21344 | 16770 ft | 536 kts | 159° |
| 2026-05-05 17:27 | 43.61430 | -84.18782 | 16783 ft | 537 kts | 158° |
| 2026-05-05 17:27 | 43.58185 | -84.16226 | 16798 ft | 537 kts | 159° |
| 2026-05-05 17:28 | 43.54933 | -84.13687 | 16794 ft | 537 kts | 158° |
| 2026-05-05 17:28 | 43.51687 | -84.11128 | 16797 ft | 538 kts | 159° |
| 2026-05-05 17:28 | 43.48431 | -84.08592 | 16796 ft | 538 kts | 159° |
| 2026-05-05 17:28 | 43.45176 | -84.06062 | 16769 ft | 537 kts | 158° |
| 2026-05-05 17:29 | 43.41963 | -84.03527 | 16783 ft | 520 kts | 157° |
| 2026-05-05 17:29 | 43.38963 | -84.00947 | 16780 ft | 498 kts | 155° |
| 2026-05-05 17:29 | 43.36112 | -83.98384 | 16769 ft | 481 kts | 155° |
| 2026-05-05 17:29 | 43.33350 | -83.95910 | 16764 ft | 466 kts | 156° |
| 2026-05-05 17:30 | 43.30661 | -83.93580 | 16762 ft | 446 kts | 157° |
| 2026-05-05 17:30 | 43.28106 | -83.91365 | 16599 ft | 425 kts | 158° |
| 2026-05-05 17:30 | 43.25652 | -83.89252 | 16147 ft | 408 kts | 157° |
| 2026-05-05 17:30 | 43.23294 | -83.87211 | 15752 ft | 394 kts | 158° |
| 2026-05-05 17:31 | 43.21014 | -83.85240 | 15356 ft | 381 kts | 158° |
| 2026-05-05 17:31 | 43.18799 | -83.83331 | 15002 ft | 371 kts | 158° |
| 2026-05-05 17:31 | 43.16638 | -83.81472 | 14630 ft | 362 kts | 158° |
| 2026-05-05 17:31 | 43.14523 | -83.79668 | 14260 ft | 354 kts | 159° |
| 2026-05-05 17:32 | 43.12617 | -83.78046 | 13926 ft | 348 kts | 159° |
| 2026-05-05 17:32 | 43.10582 | -83.76314 | 13555 ft | 342 kts | 159° |
| 2026-05-05 17:32 | 43.08599 | -83.74633 | 13158 ft | 337 kts | 159° |
| 2026-05-05 17:32 | 43.06627 | -83.72956 | 12761 ft | 331 kts | 159° |
| 2026-05-05 17:33 | 43.04679 | -83.71312 | 12336 ft | 327 kts | 159° |
| 2026-05-05 17:33 | 43.02758 | -83.69681 | 11940 ft | 323 kts | 159° |
| 2026-05-05 17:33 | 43.00862 | -83.68075 | 11558 ft | 319 kts | 159° |
| 2026-05-05 17:33 | 42.98987 | -83.66488 | 11184 ft | 315 kts | 159° |
| 2026-05-05 17:34 | 42.97133 | -83.64920 | 10799 ft | 312 kts | 159° |
| 2026-05-05 17:34 | 42.95299 | -83.63368 | 10438 ft | 309 kts | 159° |
| 2026-05-05 17:34 | 42.93483 | -83.61836 | 10070 ft | 305 kts | 159° |
| 2026-05-05 17:34 | 42.91687 | -83.60317 | 9712 ft | 302 kts | 159° |
| 2026-05-05 17:35 | 42.89901 | -83.58820 | 9319 ft | 299 kts | 159° |
| 2026-05-05 17:35 | 42.88144 | -83.57336 | 9028 ft | 294 kts | 159° |
| 2026-05-05 17:35 | 42.86440 | -83.55899 | 8908 ft | 283 kts | 159° |
| 2026-05-05 17:35 | 42.84805 | -83.54514 | 8845 ft | 271 kts | 160° |
| 2026-05-05 17:36 | 42.83237 | -83.53194 | 8799 ft | 259 kts | 159° |
| 2026-05-05 17:36 | 42.81739 | -83.51941 | 8805 ft | 248 kts | 160° |
| 2026-05-05 17:36 | 42.80305 | -83.50727 | 8810 ft | 238 kts | 160° |
| 2026-05-05 17:36 | 42.78924 | -83.49586 | 8806 ft | 227 kts | 163° |
| 2026-05-05 17:37 | 42.77697 | -83.48642 | 8800 ft | 218 kts | 165° |
| 2026-05-05 17:37 | 42.76368 | -83.47668 | 8797 ft | 217 kts | 165° |
| 2026-05-05 17:37 | 42.74975 | -83.46679 | 8407 ft | 233 kts | 165° |
| 2026-05-05 17:37 | 42.73497 | -83.45616 | 8028 ft | 248 kts | 163° |
| 2026-05-05 17:38 | 42.71952 | -83.44457 | 7659 ft | 259 kts | 161° |
| 2026-05-05 17:38 | 42.70356 | -83.43230 | 7320 ft | 267 kts | 160° |
| 2026-05-05 17:38 | 42.68716 | -83.41987 | 6964 ft | 273 kts | 160° |
| 2026-05-05 17:38 | 42.67039 | -83.40739 | 6600 ft | 277 kts | 160° |
| 2026-05-05 17:39 | 42.65397 | -83.39285 | 6235 ft | 292 kts | 142° |
| 2026-05-05 17:39 | 42.64269 | -83.36902 | 5861 ft | 307 kts | 121° |
| 2026-05-05 17:39 | 42.63457 | -83.34193 | 5512 ft | 312 kts | 115° |
| 2026-05-05 17:39 | 42.62724 | -83.31415 | 5145 ft | 313 kts | 113° |
| 2026-05-05 17:40 | 42.61997 | -83.28629 | 4775 ft | 312 kts | 119° |
| 2026-05-05 17:40 | 42.60793 | -83.26233 | 4418 ft | 304 kts | 133° |
| 2026-05-05 17:40 | 42.59504 | -83.24012 | 4092 ft | 295 kts | 131° |
| 2026-05-05 17:40 | 42.58278 | -83.21858 | 3950 ft | 282 kts | 131° |
| 2026-05-05 17:41 | 42.57138 | -83.19781 | 3877 ft | 266 kts | 134° |
| 2026-05-05 17:41 | 42.55682 | -83.18446 | 3834 ft | 245 kts | 168° |
| 2026-05-05 17:41 | 42.54055 | -83.18075 | 3834 ft | 232 kts | 181° |
| 2026-05-05 17:41 | 42.52473 | -83.17984 | 3818 ft | 223 kts | 184° |
| 2026-05-05 17:42 | 42.50960 | -83.17962 | 3804 ft | 216 kts | 188° |
| 2026-05-05 17:42 | 42.49585 | -83.18470 | 3822 ft | 201 kts | 210° |
| 2026-05-05 17:42 | 42.48351 | -83.19288 | 3812 ft | 194 kts | 212° |
| 2026-05-05 17:42 | 42.47160 | -83.20114 | 3823 ft | 191 kts | 212° |
| 2026-05-05 17:43 | 42.45978 | -83.20945 | 3849 ft | 193 kts | 213° |
| 2026-05-05 17:43 | 42.44787 | -83.21791 | 3865 ft | 195 kts | 213° |
| 2026-05-05 17:43 | 42.43587 | -83.22632 | 3876 ft | 199 kts | 212° |
| 2026-05-05 17:43 | 42.42346 | -83.23487 | 3874 ft | 202 kts | 211° |
| 2026-05-05 17:44 | 42.41079 | -83.24340 | 3857 ft | 205 kts | 211° |
| 2026-05-05 17:44 | 42.39796 | -83.25192 | 3864 ft | 207 kts | 210° |
| 2026-05-05 17:44 | 42.38497 | -83.26046 | 3842 ft | 206 kts | 210° |
| 2026-05-05 17:44 | 42.37232 | -83.26864 | 3830 ft | 198 kts | 210° |
| 2026-05-05 17:45 | 42.35988 | -83.27681 | 3635 ft | 202 kts | 211° |
| 2026-05-05 17:45 | 42.34685 | -83.28560 | 3336 ft | 210 kts | 210° |
| 2026-05-05 17:45 | 42.33358 | -83.29445 | 3055 ft | 216 kts | 210° |
| 2026-05-05 17:45 | 42.32003 | -83.30349 | 2798 ft | 214 kts | 210° |
| 2026-05-05 17:46 | 42.30804 | -83.31123 | 2535 ft | 174 kts | 210° |
| 2026-05-05 17:46 | 42.29824 | -83.31758 | 2279 ft | 138 kts | 212° |
| 2026-05-05 17:46 | 42.29053 | -83.32275 | 2050 ft | 118 kts | 216° |
| 2026-05-05 17:46 | 42.28291 | -83.32819 | 1928 ft | 130 kts | 213° |
| 2026-05-05 17:47 | 42.27712 | -83.33130 | 1896 ft | 137 kts | 205° |
| 2026-05-05 17:47 | 42.26750 | -83.33566 | 1698 ft | 152 kts | 205° |
| 2026-05-05 17:47 | 42.25774 | -83.34161 | 1596 ft | 156 kts | 210° |
| 2026-05-05 17:47 | 42.24814 | -83.34861 | 1321 ft | 151 kts | 216° |
| 2026-05-05 17:48 | 42.23989 | -83.35566 | 1072 ft | 134 kts | 217° |
| 2026-05-05 17:48 | 42.23159 | -83.36208 | 829 ft | 136 kts | 217° |
| 2026-05-05 17:48 | 42.22377 | -83.36809 | 678 ft | 121 kts | 214° |
| 2026-05-05 17:48 | 42.21754 | -83.37277 | 645 ft | 77 kts | 206° |
| 2026-05-05 17:49 | 42.21370 | -83.37553 | 649 ft | 56 kts | 208° |
| 2026-05-05 17:49 | 42.21116 | -83.37731 | 648 ft | 33 kts | 199° |
| 2026-05-05 17:49 | 42.20938 | -83.37733 | 650 ft | 14 kts | 146° |
| 2026-05-05 17:49 | 42.20916 | -83.37637 | 648 ft | 10 kts | 40° |
| 2026-05-05 17:50 | 42.21022 | -83.37557 | 648 ft | 17 kts | 31° |
| 2026-05-05 17:50 | 42.21029 | -83.37411 | 648 ft | 19 kts | 118° |
| 2026-05-05 17:50 | 42.20956 | -83.37233 | 648 ft | 24 kts | 118° |
| 2026-05-05 17:50 | 42.20870 | -83.37021 | 647 ft | 28 kts | 118° |
| 2026-05-05 17:51 | 42.20771 | -83.36780 | 647 ft | 32 kts | 120° |
| 2026-05-05 17:51 | 42.20670 | -83.36523 | 648 ft | 27 kts | 121° |
| 2026-05-05 17:51 | 42.20608 | -83.36469 | 648 ft | 0 kts | 178° |